createdAt,value
2022-11-18T00:00:27.334Z,9.20
2022-11-18T00:01:27.248Z,9.12
2022-11-18T00:02:27.207Z,9.27
2022-11-18T00:03:27.085Z,9.14
2022-11-18T00:04:27.004Z,9.34
2022-11-18T00:05:26.924Z,9.14
2022-11-18T00:06:26.843Z,9.28
2022-11-18T00:07:26.811Z,9.14
2022-11-18T00:08:26.680Z,9.10
2022-11-18T00:09:26.596Z,9.05
2022-11-18T00:10:26.518Z,8.93
2022-11-18T00:11:26.437Z,8.95
2022-11-18T00:12:26.358Z,8.90
2022-11-18T00:13:26.274Z,8.77
2022-11-18T00:14:26.207Z,8.88
2022-11-18T00:15:31.439Z,8.77
2022-11-18T00:16:26.031Z,8.75
2022-11-18T00:17:25.950Z,8.79
2022-11-18T00:18:25.867Z,8.82
2022-11-18T00:19:25.782Z,8.88
2022-11-18T00:20:25.717Z,8.80
2022-11-18T00:21:25.624Z,8.88
2022-11-18T00:22:29.722Z,8.91
2022-11-18T00:23:25.457Z,8.90
2022-11-18T00:24:25.380Z,8.93
2022-11-18T00:25:25.298Z,8.97
2022-11-18T00:26:25.214Z,9.05
2022-11-18T00:27:25.133Z,8.94
2022-11-18T00:28:25.052Z,9.00
2022-11-18T00:29:24.973Z,8.84
2022-11-18T00:30:24.893Z,8.87
2022-11-18T00:31:24.805Z,8.87
2022-11-18T00:32:24.726Z,8.77
2022-11-18T00:33:24.650Z,8.79
2022-11-18T00:34:24.572Z,8.76
2022-11-18T00:35:24.481Z,8.85
2022-11-18T00:36:24.407Z,8.80
2022-11-18T00:37:24.331Z,8.79
2022-11-18T00:38:24.239Z,8.80
2022-11-18T00:39:24.159Z,8.79
2022-11-18T00:40:24.085Z,8.77
2022-11-18T00:41:23.991Z,8.85
2022-11-18T00:42:23.915Z,8.90
2022-11-18T00:43:23.833Z,8.80
2022-11-18T00:44:23.753Z,8.91
2022-11-18T00:45:23.666Z,8.87
2022-11-18T00:46:23.588Z,8.88
2022-11-18T00:47:23.506Z,8.77
2022-11-18T00:48:23.430Z,8.82
2022-11-18T00:49:23.347Z,8.76
2022-11-18T00:50:23.273Z,8.82
2022-11-18T00:51:23.180Z,8.79
2022-11-18T00:52:23.102Z,8.68
2022-11-18T00:53:23.084Z,8.79
2022-11-18T00:54:22.935Z,8.70
2022-11-18T00:55:22.851Z,8.62
2022-11-18T00:56:22.779Z,8.61
2022-11-18T00:57:22.693Z,8.51
2022-11-18T00:58:22.615Z,8.51
2022-11-18T00:59:22.527Z,8.50
2022-11-18T01:00:22.448Z,8.43
2022-11-18T01:01:22.414Z,8.47
2022-11-18T01:02:22.289Z,8.52
2022-11-18T01:03:22.206Z,8.54
2022-11-18T01:04:22.119Z,8.52
2022-11-18T01:05:22.049Z,8.54
2022-11-18T01:06:21.960Z,8.61
2022-11-18T01:07:21.926Z,8.61
2022-11-18T01:08:21.797Z,8.55
2022-11-18T01:09:21.716Z,8.52
2022-11-18T01:10:21.633Z,8.48
2022-11-18T01:11:21.550Z,8.32
2022-11-18T01:12:21.465Z,8.29
2022-11-18T01:13:21.393Z,8.19
2022-11-18T01:14:21.310Z,8.12
2022-11-18T01:15:21.221Z,8.11
2022-11-18T01:16:21.140Z,8.12
2022-11-18T01:17:21.071Z,8.12
2022-11-18T01:18:20.979Z,8.12
2022-11-18T01:19:20.901Z,8.07
2022-11-18T01:20:20.814Z,8.15
2022-11-18T01:21:20.734Z,8.06
2022-11-18T01:22:20.652Z,8.17
2022-11-18T01:23:20.570Z,8.21
2022-11-18T01:24:20.490Z,8.18
2022-11-18T01:25:20.415Z,8.22
2022-11-18T01:26:20.323Z,8.17
2022-11-18T01:27:20.244Z,8.14
2022-11-18T01:28:23.575Z,8.12
2022-11-18T01:29:20.339Z,8.09
2022-11-18T01:30:20.022Z,8.00
2022-11-18T01:31:19.920Z,7.85
2022-11-18T01:32:24.860Z,7.67
2022-11-18T01:33:19.751Z,7.67
2022-11-18T01:34:19.683Z,7.68
2022-11-18T01:35:19.588Z,7.70
2022-11-18T01:36:19.507Z,7.64
2022-11-18T01:37:19.426Z,7.75
2022-11-18T01:38:19.343Z,7.75
2022-11-18T01:39:19.569Z,7.81
2022-11-18T01:40:19.188Z,7.88
2022-11-18T01:41:19.100Z,7.86
2022-11-18T01:42:19.028Z,7.91
2022-11-18T01:43:18.936Z,7.91
2022-11-18T01:44:18.851Z,7.99
2022-11-18T01:45:18.775Z,8.00
2022-11-18T01:46:18.687Z,7.94
2022-11-18T01:47:18.606Z,7.96
2022-11-18T01:48:18.525Z,8.01
2022-11-18T01:49:18.760Z,7.94
2022-11-18T01:50:18.363Z,7.82
2022-11-18T01:51:18.280Z,7.82
2022-11-18T01:52:18.194Z,7.64
2022-11-18T01:53:18.119Z,7.55
2022-11-18T01:54:18.036Z,7.67
2022-11-18T01:55:17.952Z,7.52
2022-11-18T01:56:17.868Z,7.52
2022-11-18T01:57:17.795Z,7.47
2022-11-18T01:58:17.707Z,7.45
2022-11-18T01:59:17.878Z,7.42
2022-11-18T02:00:17.547Z,7.41
2022-11-18T02:01:17.477Z,7.39
2022-11-18T02:02:17.404Z,7.42
2022-11-18T02:03:17.301Z,7.37
2022-11-18T02:04:17.217Z,7.48
2022-11-18T02:05:17.135Z,7.55
2022-11-18T02:06:17.055Z,7.57
2022-11-18T02:07:16.996Z,7.62
2022-11-18T02:08:16.883Z,7.57
2022-11-18T02:09:16.960Z,7.57
2022-11-18T02:10:16.726Z,7.56
2022-11-18T02:11:16.643Z,7.68
2022-11-18T02:12:16.614Z,7.67
2022-11-18T02:13:16.483Z,7.60
2022-11-18T02:14:16.393Z,7.57
2022-11-18T02:15:16.311Z,7.55
2022-11-18T02:16:16.260Z,7.56
2022-11-18T02:17:16.153Z,7.52
2022-11-18T02:18:16.069Z,7.55
2022-11-18T02:19:16.529Z,7.47
2022-11-18T02:20:15.900Z,7.41
2022-11-18T02:21:15.822Z,7.45
2022-11-18T02:22:15.739Z,7.41
2022-11-18T02:23:15.656Z,7.37
2022-11-18T02:24:15.578Z,7.34
2022-11-18T02:25:15.495Z,7.38
2022-11-18T02:26:15.407Z,7.35
2022-11-18T02:27:15.328Z,7.30
2022-11-18T02:28:15.249Z,7.29
2022-11-18T02:29:15.567Z,7.35
2022-11-18T02:30:15.103Z,7.34
2022-11-18T02:31:15.002Z,7.35
2022-11-18T02:32:14.917Z,7.37
2022-11-18T02:33:14.849Z,7.45
2022-11-18T02:34:14.752Z,7.44
2022-11-18T02:35:14.670Z,7.41
2022-11-18T02:36:14.591Z,7.41
2022-11-18T02:37:14.505Z,7.45
2022-11-18T02:38:14.424Z,7.49
2022-11-18T02:39:14.541Z,7.41
2022-11-18T02:40:14.257Z,7.42
2022-11-18T02:41:14.178Z,7.47
2022-11-18T02:42:14.095Z,7.44
2022-11-18T02:43:14.015Z,7.44
2022-11-18T02:44:13.929Z,7.37
2022-11-18T02:45:13.863Z,7.27
2022-11-18T02:46:13.771Z,7.27
2022-11-18T02:47:13.684Z,7.19
2022-11-18T02:48:13.598Z,7.16
2022-11-18T02:49:13.521Z,7.06
2022-11-18T02:50:13.438Z,7.12
2022-11-18T02:51:13.355Z,7.09
2022-11-18T02:52:13.272Z,7.06
2022-11-18T02:53:13.196Z,7.16
2022-11-18T02:54:13.106Z,7.19
2022-11-18T02:55:13.026Z,7.20
2022-11-18T02:56:12.947Z,7.17
2022-11-18T02:57:12.872Z,7.05
2022-11-18T02:58:12.779Z,7.13
2022-11-18T02:59:12.697Z,7.11
2022-11-18T03:00:12.619Z,6.94
2022-11-18T03:01:12.693Z,6.91
2022-11-18T03:02:12.450Z,6.88
2022-11-18T03:03:12.368Z,6.96
2022-11-18T03:04:12.287Z,6.93
2022-11-18T03:05:12.204Z,6.87
2022-11-18T03:06:12.124Z,6.90
2022-11-18T03:07:12.077Z,6.87
2022-11-18T03:08:11.956Z,6.88
2022-11-18T03:09:11.874Z,6.93
2022-11-18T03:10:11.793Z,6.93
2022-11-18T03:11:11.713Z,6.96
2022-11-18T03:12:11.639Z,6.98
2022-11-18T03:13:11.545Z,7.13
2022-11-18T03:14:11.460Z,7.08
2022-11-18T03:15:11.383Z,7.13
2022-11-18T03:16:11.296Z,7.16
2022-11-18T03:17:11.218Z,7.12
2022-11-18T03:18:11.134Z,7.26
2022-11-18T03:19:11.056Z,7.19
2022-11-18T03:20:10.972Z,7.34
2022-11-18T03:21:10.886Z,7.30
2022-11-18T03:22:10.804Z,7.37
2022-11-18T03:23:10.726Z,7.31
2022-11-18T03:24:10.640Z,7.30
2022-11-18T03:25:10.558Z,7.41
2022-11-18T03:26:10.475Z,7.35
2022-11-18T03:27:10.393Z,7.44
2022-11-18T03:28:10.311Z,7.44
2022-11-18T03:29:10.225Z,7.37
2022-11-18T03:30:10.145Z,7.38
2022-11-18T03:31:10.060Z,7.38
2022-11-18T03:32:09.984Z,7.39
2022-11-18T03:33:09.897Z,7.42
2022-11-18T03:34:09.830Z,7.55
2022-11-18T03:35:09.733Z,7.45
2022-11-18T03:36:09.648Z,7.44
2022-11-18T03:37:10.785Z,7.52
2022-11-18T03:38:09.500Z,7.53
2022-11-18T03:39:09.403Z,7.47
2022-11-18T03:40:09.318Z,7.44
2022-11-18T03:41:09.283Z,7.48
2022-11-18T03:42:09.160Z,7.44
2022-11-18T03:43:09.073Z,7.42
2022-11-18T03:44:08.989Z,7.37
2022-11-18T03:45:08.913Z,7.38
2022-11-18T03:46:08.828Z,7.35
2022-11-18T03:47:08.747Z,7.38
2022-11-18T03:48:08.662Z,7.39
2022-11-18T03:49:08.587Z,7.39
2022-11-18T03:50:08.498Z,7.41
2022-11-18T03:51:08.417Z,7.45
2022-11-18T03:52:08.334Z,7.48
2022-11-18T03:53:08.250Z,7.44
2022-11-18T03:54:08.167Z,7.53
2022-11-18T03:55:08.088Z,7.45
2022-11-18T03:56:11.563Z,7.48
2022-11-18T03:57:07.922Z,7.47
2022-11-18T03:58:07.842Z,7.44
2022-11-18T03:59:07.772Z,7.56
2022-11-18T04:00:07.675Z,7.52
2022-11-18T04:01:07.592Z,7.55
2022-11-18T04:02:07.530Z,7.55
2022-11-18T04:03:07.430Z,7.59
2022-11-18T04:04:07.343Z,7.59
2022-11-18T04:05:07.272Z,7.62
2022-11-18T04:06:07.181Z,7.49
2022-11-18T04:07:07.140Z,7.49
2022-11-18T04:08:07.013Z,7.52
2022-11-18T04:09:06.940Z,7.64
2022-11-18T04:10:06.853Z,7.63
2022-11-18T04:11:06.769Z,7.59
2022-11-18T04:12:06.686Z,7.64
2022-11-18T04:13:07.020Z,7.64
2022-11-18T04:14:06.521Z,7.55
2022-11-18T04:15:06.443Z,7.60
2022-11-18T04:16:06.362Z,7.62
2022-11-18T04:17:06.278Z,7.64
2022-11-18T04:18:06.196Z,7.57
2022-11-18T04:19:06.591Z,7.53
2022-11-18T04:20:06.031Z,7.55
2022-11-18T04:21:06.010Z,7.57
2022-11-18T04:22:05.866Z,7.56
2022-11-18T04:23:05.784Z,7.64
2022-11-18T04:24:05.702Z,7.76
2022-11-18T04:25:05.618Z,7.64
2022-11-18T04:26:05.538Z,7.67
2022-11-18T04:27:05.455Z,7.78
2022-11-18T04:28:05.373Z,7.68
2022-11-18T04:29:05.291Z,7.64
2022-11-18T04:30:05.206Z,7.79
2022-11-18T04:31:05.129Z,7.76
2022-11-18T04:32:05.055Z,7.68
2022-11-18T04:33:04.967Z,7.70
2022-11-18T04:34:04.876Z,7.68
2022-11-18T04:35:04.802Z,7.75
2022-11-18T04:36:04.713Z,7.81
2022-11-18T04:37:04.641Z,7.73
2022-11-18T04:38:05.198Z,7.68
2022-11-18T04:39:04.468Z,7.68
2022-11-18T04:40:04.426Z,7.73
2022-11-18T04:41:04.302Z,7.72
2022-11-18T04:42:04.233Z,7.70
2022-11-18T04:43:04.145Z,7.72
2022-11-18T04:44:04.057Z,7.67
2022-11-18T04:45:04.000Z,7.67
2022-11-18T04:46:03.895Z,7.68
2022-11-18T04:47:03.809Z,7.67
2022-11-18T04:48:04.095Z,7.72
2022-11-18T04:49:03.650Z,7.70
2022-11-18T04:50:03.567Z,7.70
2022-11-18T04:51:03.483Z,7.70
2022-11-18T04:52:03.397Z,7.76
2022-11-18T04:53:03.323Z,7.67
2022-11-18T04:54:03.235Z,7.63
2022-11-18T04:55:03.156Z,7.79
2022-11-18T04:56:03.070Z,7.79
2022-11-18T04:57:02.994Z,7.68
2022-11-18T04:58:02.911Z,7.76
2022-11-18T04:59:02.827Z,7.67
2022-11-18T05:00:02.745Z,7.68
2022-11-18T05:01:02.683Z,7.68
2022-11-18T05:02:02.577Z,7.73
2022-11-18T05:03:02.500Z,7.78
2022-11-18T05:04:02.414Z,7.67
2022-11-18T05:05:02.334Z,7.72
2022-11-18T05:06:02.266Z,7.68
2022-11-18T05:07:02.243Z,7.75
2022-11-18T05:08:02.087Z,7.81
2022-11-18T05:09:02.006Z,7.70
2022-11-18T05:10:01.928Z,7.76
2022-11-18T05:11:01.836Z,7.78
2022-11-18T05:12:01.787Z,7.73
2022-11-18T05:13:01.679Z,7.75
2022-11-18T05:14:01.592Z,7.83
2022-11-18T05:15:01.520Z,7.75
2022-11-18T05:16:01.429Z,7.78
2022-11-18T05:17:01.349Z,7.75
2022-11-18T05:18:01.265Z,7.76
2022-11-18T05:19:01.180Z,7.79
2022-11-18T05:20:01.099Z,7.72
2022-11-18T05:21:01.021Z,7.68
2022-11-18T05:22:00.939Z,7.73
2022-11-18T05:23:00.854Z,7.70
2022-11-18T05:24:00.796Z,7.67
2022-11-18T05:25:00.690Z,7.70
2022-11-18T05:26:02.535Z,7.70
2022-11-18T05:27:00.527Z,7.70
2022-11-18T05:28:00.440Z,7.79
2022-11-18T05:29:00.360Z,7.73
2022-11-18T05:30:00.279Z,7.73
2022-11-18T05:31:00.193Z,7.72
2022-11-18T05:32:00.117Z,7.79
2022-11-18T05:33:00.028Z,7.67
2022-11-18T05:33:59.947Z,7.70
2022-11-18T05:34:59.866Z,7.79
2022-11-18T05:35:59.783Z,7.68
2022-11-18T05:36:59.699Z,7.63
2022-11-18T05:37:59.622Z,7.82
2022-11-18T05:38:59.542Z,7.76
2022-11-18T05:39:59.461Z,7.85
2022-11-18T05:40:59.376Z,7.82
2022-11-18T05:41:59.295Z,7.79
2022-11-18T05:42:59.207Z,7.82
2022-11-18T05:43:59.189Z,7.91
2022-11-18T05:44:59.272Z,7.85
2022-11-18T05:45:58.965Z,7.85
2022-11-18T05:46:58.882Z,7.86
2022-11-18T05:47:58.803Z,7.90
2022-11-18T05:48:58.730Z,7.86
2022-11-18T05:49:58.642Z,7.88
2022-11-18T05:50:58.551Z,7.88
2022-11-18T05:51:58.473Z,7.94
2022-11-18T05:52:58.387Z,7.90
2022-11-18T05:53:58.313Z,7.90
2022-11-18T05:54:58.226Z,7.93
2022-11-18T05:55:58.140Z,7.88
2022-11-18T05:56:58.066Z,7.86
2022-11-18T05:57:57.983Z,7.94
2022-11-18T05:58:57.897Z,7.94
2022-11-18T05:59:57.818Z,7.99
2022-11-18T06:00:57.734Z,7.94
2022-11-18T06:01:57.648Z,7.93
2022-11-18T06:02:57.575Z,7.96
2022-11-18T06:03:57.484Z,7.93
2022-11-18T06:04:57.399Z,7.99
2022-11-18T06:05:57.326Z,8.03
2022-11-18T06:06:57.266Z,7.99
2022-11-18T06:07:57.161Z,7.97
2022-11-18T06:08:57.074Z,7.99
2022-11-18T06:09:59.784Z,8.00
2022-11-18T06:10:56.913Z,7.97
2022-11-18T06:11:56.833Z,8.01
2022-11-18T06:12:56.819Z,7.97
2022-11-18T06:13:56.667Z,7.97
2022-11-18T06:14:56.582Z,7.96
2022-11-18T06:15:56.501Z,7.99
2022-11-18T06:16:56.421Z,7.99
2022-11-18T06:17:56.339Z,8.00
2022-11-18T06:18:56.256Z,8.03
2022-11-18T06:19:56.176Z,8.01
2022-11-18T06:20:56.090Z,7.99
2022-11-18T06:21:56.011Z,8.09
2022-11-18T06:22:55.932Z,7.99
2022-11-18T06:23:55.841Z,8.09
2022-11-18T06:24:55.763Z,8.04
2022-11-18T06:25:55.685Z,8.06
2022-11-18T06:26:55.596Z,8.09
2022-11-18T06:27:55.517Z,8.09
2022-11-18T06:28:55.438Z,8.07
2022-11-18T06:29:55.351Z,8.06
2022-11-18T06:30:55.267Z,8.04
2022-11-18T06:31:55.194Z,8.11
2022-11-18T06:32:55.101Z,8.07
2022-11-18T06:33:55.022Z,8.15
2022-11-18T06:34:54.943Z,8.07
2022-11-18T06:35:54.858Z,8.11
2022-11-18T06:36:54.773Z,8.12
2022-11-18T06:37:54.701Z,8.17
2022-11-18T06:38:54.618Z,8.18
2022-11-18T06:39:55.372Z,8.15
2022-11-18T06:40:54.451Z,8.09
2022-11-18T06:41:54.370Z,8.09
2022-11-18T06:42:54.284Z,8.11
2022-11-18T06:43:54.210Z,8.11
2022-11-18T06:44:54.242Z,8.12
2022-11-18T06:45:54.044Z,8.15
2022-11-18T06:46:53.954Z,8.22
2022-11-18T06:47:53.876Z,8.19
2022-11-18T06:48:53.792Z,8.21
2022-11-18T06:49:53.714Z,8.21
2022-11-18T06:50:53.626Z,8.14
2022-11-18T06:51:53.550Z,8.15
2022-11-18T06:52:53.470Z,8.17
2022-11-18T06:53:53.384Z,8.25
2022-11-18T06:54:53.302Z,8.21
2022-11-18T06:55:53.219Z,8.29
2022-11-18T06:56:53.140Z,8.21
2022-11-18T06:57:53.065Z,8.21
2022-11-18T06:58:52.976Z,8.24
2022-11-18T06:59:56.494Z,8.32
2022-11-18T07:00:52.849Z,8.27
2022-11-18T07:01:52.728Z,8.29
2022-11-18T07:02:52.645Z,8.24
2022-11-18T07:03:52.564Z,8.25
2022-11-18T07:04:52.478Z,8.27
2022-11-18T07:05:52.409Z,8.32
2022-11-18T07:06:52.497Z,8.24
2022-11-18T07:07:52.330Z,8.30
2022-11-18T07:08:52.159Z,8.30
2022-11-18T07:09:52.072Z,8.21
2022-11-18T07:10:51.990Z,8.19
2022-11-18T07:11:51.908Z,8.17
2022-11-18T07:12:51.825Z,8.24
2022-11-18T07:13:51.747Z,8.29
2022-11-18T07:14:51.662Z,8.29
2022-11-18T07:15:51.582Z,8.27
2022-11-18T07:16:51.502Z,8.18
2022-11-18T07:17:51.417Z,8.22
2022-11-18T07:18:51.335Z,8.24
2022-11-18T07:19:51.254Z,8.24
2022-11-18T07:20:51.170Z,8.32
2022-11-18T07:21:51.093Z,8.25
2022-11-18T07:22:51.003Z,8.29
2022-11-18T07:23:50.927Z,8.29
2022-11-18T07:24:50.840Z,8.33
2022-11-18T07:25:50.764Z,8.25
2022-11-18T07:26:50.680Z,8.21
2022-11-18T07:27:50.596Z,8.25
2022-11-18T07:28:50.519Z,8.37
2022-11-18T07:29:50.440Z,8.39
2022-11-18T07:30:50.348Z,8.39
2022-11-18T07:31:50.268Z,8.36
2022-11-18T07:32:50.190Z,8.36
2022-11-18T07:33:50.104Z,8.36
2022-11-18T07:34:50.020Z,8.37
2022-11-18T07:35:49.947Z,8.44
2022-11-18T07:36:49.865Z,8.40
2022-11-18T07:37:49.781Z,8.55
2022-11-18T07:38:49.703Z,8.51
2022-11-18T07:39:49.619Z,8.52
2022-11-18T07:40:49.530Z,8.48
2022-11-18T07:41:49.450Z,8.54
2022-11-18T07:42:49.364Z,8.50
2022-11-18T07:43:49.285Z,8.51
2022-11-18T07:44:49.202Z,8.57
2022-11-18T07:45:49.123Z,8.58
2022-11-18T07:46:49.038Z,8.57
2022-11-18T07:47:48.957Z,8.55
2022-11-18T07:48:48.889Z,8.61
2022-11-18T07:49:48.804Z,8.65
2022-11-18T07:50:48.715Z,8.57
2022-11-18T07:51:48.640Z,8.66
2022-11-18T07:52:48.548Z,8.66
2022-11-18T07:53:48.467Z,8.68
2022-11-18T07:54:48.387Z,8.61
2022-11-18T07:55:48.309Z,8.68
2022-11-18T07:56:48.226Z,8.62
2022-11-18T07:57:48.140Z,8.66
2022-11-18T07:58:48.054Z,8.61
2022-11-18T07:59:47.980Z,8.58
2022-11-18T08:00:47.894Z,8.66
2022-11-18T08:01:47.898Z,8.65
2022-11-18T08:02:47.733Z,8.66
2022-11-18T08:03:47.661Z,8.70
2022-11-18T08:04:47.634Z,8.65
2022-11-18T08:05:47.486Z,8.70
2022-11-18T08:06:47.401Z,8.70
2022-11-18T08:07:47.324Z,8.66
2022-11-18T08:08:47.242Z,8.61
2022-11-18T08:09:47.157Z,8.66
2022-11-18T08:10:47.087Z,8.65
2022-11-18T08:11:46.995Z,8.66
2022-11-18T08:12:46.912Z,8.62
2022-11-18T08:13:46.832Z,8.73
2022-11-18T08:14:46.749Z,8.73
2022-11-18T08:15:46.671Z,8.77
2022-11-18T08:16:46.588Z,8.73
2022-11-18T08:17:46.505Z,8.70
2022-11-18T08:18:46.420Z,8.77
2022-11-18T08:19:46.341Z,8.75
2022-11-18T08:20:46.255Z,8.66
2022-11-18T08:21:46.174Z,8.77
2022-11-18T08:22:46.093Z,8.79
2022-11-18T08:23:46.010Z,8.79
2022-11-18T08:24:45.927Z,8.88
2022-11-18T08:25:45.845Z,8.87
2022-11-18T08:26:45.790Z,8.90
2022-11-18T08:27:45.692Z,8.80
2022-11-18T08:28:45.627Z,8.85
2022-11-18T08:29:45.520Z,8.85
2022-11-18T08:30:45.438Z,8.80
2022-11-18T08:31:45.361Z,8.75
2022-11-18T08:32:45.277Z,8.77
2022-11-18T08:33:45.192Z,8.84
2022-11-18T08:34:45.107Z,8.87
2022-11-18T08:35:45.030Z,8.82
2022-11-18T08:36:44.944Z,8.80
2022-11-18T08:37:44.867Z,8.79
2022-11-18T08:38:44.786Z,8.80
2022-11-18T08:39:44.705Z,8.88
2022-11-18T08:40:44.619Z,8.84
2022-11-18T08:41:44.537Z,8.77
2022-11-18T08:42:44.454Z,8.73
2022-11-18T08:43:44.372Z,8.82
2022-11-18T08:44:44.295Z,8.82
2022-11-18T08:45:44.214Z,8.80
2022-11-18T08:46:44.125Z,8.76
2022-11-18T08:47:44.045Z,8.80
2022-11-18T08:48:43.967Z,8.76
2022-11-18T08:49:43.884Z,8.79
2022-11-18T08:50:43.799Z,8.84
2022-11-18T08:51:43.719Z,8.79
2022-11-18T08:52:43.647Z,8.82
2022-11-18T08:53:43.555Z,8.85
2022-11-18T08:54:43.479Z,8.80
2022-11-18T08:55:43.397Z,8.77
2022-11-18T08:56:43.319Z,8.80
2022-11-18T08:57:43.230Z,8.84
2022-11-18T08:58:43.151Z,8.90
2022-11-18T08:59:43.068Z,8.84
2022-11-18T09:00:42.978Z,8.82
2022-11-18T09:01:42.941Z,8.84
2022-11-18T09:02:42.820Z,8.82
2022-11-18T09:03:42.737Z,8.85
2022-11-18T09:04:42.662Z,8.77
2022-11-18T09:05:42.578Z,8.94
2022-11-18T09:06:42.491Z,8.80
2022-11-18T09:07:42.524Z,8.84
2022-11-18T09:08:42.332Z,8.85
2022-11-18T09:09:42.248Z,8.84
2022-11-18T09:10:42.171Z,8.77
2022-11-18T09:11:42.084Z,8.87
2022-11-18T09:12:42.001Z,8.87
2022-11-18T09:14:46.547Z,8.82
2022-11-18T09:15:41.755Z,8.82
2022-11-18T09:16:41.679Z,8.88
2022-11-18T09:17:41.602Z,8.76
2022-11-18T09:18:41.510Z,8.76
2022-11-18T09:19:48.680Z,8.85
2022-11-18T09:20:41.350Z,8.79
2022-11-18T09:21:41.270Z,8.84
2022-11-18T09:22:41.182Z,8.85
2022-11-18T09:23:41.106Z,8.80
2022-11-18T09:24:41.032Z,8.90
2022-11-18T09:25:40.937Z,8.87
2022-11-18T09:26:40.854Z,8.88
2022-11-18T09:27:40.775Z,8.79
2022-11-18T09:28:40.690Z,8.91
2022-11-18T09:29:40.613Z,8.77
2022-11-18T09:30:40.528Z,8.76
2022-11-18T09:31:40.451Z,8.85
2022-11-18T09:32:40.371Z,8.80
2022-11-18T09:33:40.289Z,8.77
2022-11-18T09:34:40.210Z,8.79
2022-11-18T09:35:40.121Z,8.76
2022-11-18T09:36:40.041Z,8.77
2022-11-18T09:37:39.962Z,8.77
2022-11-18T09:38:39.877Z,8.75
2022-11-18T09:39:39.796Z,8.80
2022-11-18T09:40:39.716Z,8.82
2022-11-18T09:41:39.628Z,8.79
2022-11-18T09:42:39.552Z,8.79
2022-11-18T09:43:39.466Z,8.77
2022-11-18T09:44:39.384Z,8.75
2022-11-18T09:45:39.302Z,8.79
2022-11-18T09:46:39.223Z,8.76
2022-11-18T09:47:39.140Z,8.90
2022-11-18T09:48:39.056Z,8.82
2022-11-18T09:49:38.977Z,8.82
2022-11-18T09:50:54.210Z,8.91
2022-11-18T09:51:38.808Z,8.90
2022-11-18T09:52:38.727Z,8.87
2022-11-18T09:53:38.648Z,8.87
2022-11-18T09:54:38.566Z,8.93
2022-11-18T09:55:38.489Z,8.90
2022-11-18T09:56:38.474Z,8.95
2022-11-18T09:57:38.321Z,8.98
2022-11-18T09:58:38.248Z,9.05
2022-11-18T09:59:38.158Z,8.95
2022-11-18T10:00:38.079Z,8.94
2022-11-18T10:01:38.014Z,8.95
2022-11-18T10:02:37.917Z,8.95
2022-11-18T10:03:37.827Z,8.95
2022-11-18T10:04:37.752Z,8.90
2022-11-18T10:05:37.671Z,9.06
2022-11-18T10:06:37.583Z,9.05
2022-11-18T10:07:37.642Z,9.00
2022-11-18T10:08:37.424Z,9.03
2022-11-18T10:09:37.340Z,9.05
2022-11-18T10:10:37.262Z,9.02
2022-11-18T10:11:40.419Z,9.13
2022-11-18T10:12:37.098Z,9.00
2022-11-18T10:13:37.010Z,9.06
2022-11-18T10:14:36.931Z,9.06
2022-11-18T10:15:36.856Z,9.09
2022-11-18T10:16:36.765Z,9.09
2022-11-18T10:17:36.687Z,9.10
2022-11-18T10:19:05.129Z,9.05
2022-11-18T10:19:36.523Z,9.02
2022-11-18T10:20:36.439Z,9.13
2022-11-18T10:21:36.365Z,9.02
2022-11-18T10:22:36.281Z,9.03
2022-11-18T10:23:36.198Z,9.06
2022-11-18T10:24:36.114Z,9.03
2022-11-18T10:25:36.039Z,9.09
2022-11-18T10:26:35.953Z,9.09
2022-11-18T10:27:35.864Z,9.10
2022-11-18T10:28:35.790Z,9.06
2022-11-18T10:29:35.707Z,9.02
2022-11-18T10:30:35.631Z,9.03
2022-11-18T10:31:35.540Z,9.05
2022-11-18T10:32:35.462Z,9.16
2022-11-18T10:33:35.381Z,9.19
2022-11-18T10:34:35.304Z,9.22
2022-11-18T10:35:35.213Z,9.17
2022-11-18T10:36:35.136Z,9.22
2022-11-18T10:38:05.681Z,9.20
2022-11-18T10:38:34.971Z,9.24
2022-11-18T10:39:34.887Z,9.29
2022-11-18T10:40:34.810Z,9.28
2022-11-18T10:41:34.728Z,9.24
2022-11-18T10:42:34.645Z,9.20
2022-11-18T10:43:34.565Z,9.12
2022-11-18T10:44:34.485Z,9.22
2022-11-18T10:45:34.403Z,9.32
2022-11-18T10:46:34.320Z,9.28
2022-11-18T10:47:34.250Z,9.29
2022-11-18T10:48:34.155Z,9.29
2022-11-18T10:49:34.075Z,9.29
2022-11-18T10:50:33.994Z,9.35
2022-11-18T10:51:33.907Z,9.34
2022-11-18T10:52:33.829Z,9.40
2022-11-18T10:53:33.746Z,9.35
2022-11-18T10:54:33.663Z,9.38
2022-11-18T10:55:33.585Z,9.31
2022-11-18T10:56:33.503Z,9.38
2022-11-18T10:57:33.417Z,9.37
2022-11-18T10:58:33.343Z,9.40
2022-11-18T10:59:33.254Z,9.38
2022-11-18T11:00:33.247Z,9.43
2022-11-18T11:01:33.121Z,9.35
2022-11-18T11:02:33.011Z,9.40
2022-11-18T11:03:32.933Z,9.37
2022-11-18T11:04:32.851Z,9.43
2022-11-18T11:05:32.769Z,9.49
2022-11-18T11:06:32.684Z,9.40
2022-11-18T11:07:32.817Z,9.58
2022-11-18T11:08:37.330Z,9.43
2022-11-18T11:09:32.441Z,9.53
2022-11-18T11:10:32.361Z,9.49
2022-11-18T11:11:32.286Z,9.49
2022-11-18T11:12:32.201Z,9.37
2022-11-18T11:13:32.114Z,9.52
2022-11-18T11:14:32.032Z,9.45
2022-11-18T11:15:31.950Z,9.43
2022-11-18T11:16:31.880Z,9.42
2022-11-18T11:17:31.860Z,9.47
2022-11-18T11:18:31.708Z,9.40
2022-11-18T11:19:31.621Z,9.43
2022-11-18T11:20:31.542Z,9.40
2022-11-18T11:21:31.464Z,9.46
2022-11-18T11:22:31.381Z,9.40
2022-11-18T11:23:31.302Z,9.38
2022-11-18T11:24:31.221Z,9.50
2022-11-18T11:28:30.903Z,9.45
2022-11-18T11:29:30.818Z,9.47
2022-11-18T11:30:30.728Z,9.43
2022-11-18T11:31:30.663Z,9.40
2022-11-18T11:32:30.621Z,9.34
2022-11-18T11:33:30.484Z,9.40
2022-11-18T11:34:30.402Z,9.43
2022-11-18T11:35:30.325Z,9.38
2022-11-18T11:36:30.248Z,9.50
2022-11-18T11:37:30.161Z,9.35
2022-11-18T11:38:30.077Z,9.34
2022-11-18T11:39:30.001Z,9.40
2022-11-18T11:40:29.919Z,9.38
2022-11-18T11:41:29.835Z,9.37
2022-11-18T11:42:29.751Z,9.37
2022-11-18T11:43:29.670Z,9.34
2022-11-18T11:44:29.592Z,9.38
2022-11-18T11:45:29.508Z,9.34
2022-11-18T11:46:29.431Z,9.35
2022-11-18T11:47:29.345Z,9.40
2022-11-18T11:48:29.273Z,9.40
2022-11-18T11:49:29.196Z,9.34
2022-11-18T11:50:29.099Z,9.37
2022-11-18T11:51:29.015Z,9.34
2022-11-18T11:52:28.945Z,9.38
2022-11-18T11:53:28.858Z,9.35
2022-11-18T11:54:28.773Z,9.37
2022-11-18T11:55:28.691Z,9.35
2022-11-18T11:56:28.608Z,9.38
2022-11-18T11:57:28.533Z,9.38
2022-11-18T11:58:28.447Z,9.34
2022-11-18T11:59:28.372Z,9.40
2022-11-18T12:00:28.287Z,9.34
2022-11-18T12:01:28.207Z,9.37
2022-11-18T12:02:28.139Z,9.32
2022-11-18T12:03:28.041Z,9.40
2022-11-18T12:04:27.963Z,9.37
2022-11-18T12:05:27.877Z,9.37
2022-11-18T12:06:27.796Z,9.34
2022-11-18T12:07:27.782Z,9.32
2022-11-18T12:08:27.632Z,9.35
2022-11-18T12:09:27.556Z,9.42
2022-11-18T12:10:27.468Z,9.35
2022-11-18T12:11:27.388Z,9.38
2022-11-18T12:12:27.313Z,9.40
2022-11-18T12:13:27.228Z,9.37
2022-11-18T12:14:27.148Z,9.40
2022-11-18T12:15:27.069Z,9.34
2022-11-18T12:16:26.982Z,9.42
2022-11-18T12:17:26.904Z,9.34
2022-11-18T12:18:26.821Z,9.43
2022-11-18T12:19:26.738Z,9.40
2022-11-18T12:20:26.656Z,9.37
2022-11-18T12:21:29.880Z,9.38
2022-11-18T12:22:26.489Z,9.35
2022-11-18T12:23:26.422Z,9.37
2022-11-18T12:24:26.331Z,9.40
2022-11-18T12:25:26.247Z,9.38
2022-11-18T12:26:26.163Z,9.35
2022-11-18T12:27:26.083Z,9.43
2022-11-18T12:28:26.006Z,9.37
2022-11-18T12:29:25.927Z,9.38
2022-11-18T12:30:25.836Z,9.40
2022-11-18T12:31:25.762Z,9.38
2022-11-18T12:32:25.674Z,9.38
2022-11-18T12:33:25.597Z,9.42
2022-11-18T12:34:25.509Z,9.43
2022-11-18T12:35:25.431Z,9.38
2022-11-18T12:36:25.353Z,9.40
2022-11-18T12:37:25.276Z,9.42
2022-11-18T12:38:25.198Z,9.34
2022-11-18T12:39:25.104Z,9.38
2022-11-18T12:40:25.034Z,9.43
2022-11-18T12:41:24.948Z,9.40
2022-11-18T12:42:24.864Z,9.38
2022-11-18T12:43:24.792Z,9.34
2022-11-18T12:44:24.695Z,9.37
2022-11-18T12:45:24.622Z,9.40
2022-11-18T12:46:24.536Z,9.45
2022-11-18T12:47:24.458Z,9.38
2022-11-18T12:48:27.549Z,9.43
2022-11-18T12:49:24.305Z,9.53
2022-11-18T12:50:24.209Z,9.43
2022-11-18T12:51:24.128Z,9.52
2022-11-18T12:52:24.051Z,9.52
2022-11-18T12:53:23.966Z,9.52
2022-11-18T12:54:23.883Z,9.53
2022-11-18T12:55:23.806Z,9.53
2022-11-18T12:56:23.730Z,9.56
2022-11-18T12:57:23.644Z,9.53
2022-11-18T12:58:23.553Z,9.49
2022-11-18T12:59:23.476Z,9.56
2022-11-18T13:00:23.398Z,9.55
2022-11-18T13:01:23.349Z,9.45
2022-11-18T13:02:23.235Z,9.52
2022-11-18T13:03:23.152Z,9.49
2022-11-18T13:04:23.070Z,9.61
2022-11-18T13:05:22.988Z,9.52
2022-11-18T13:06:22.904Z,9.50
2022-11-18T13:07:22.869Z,9.53
2022-11-18T13:08:22.742Z,9.61
2022-11-18T13:09:22.665Z,9.64
2022-11-18T13:10:22.578Z,9.56
2022-11-18T13:11:22.586Z,9.55
2022-11-18T13:12:22.419Z,9.46
2022-11-18T13:13:22.335Z,9.64
2022-11-18T13:14:22.263Z,9.64
2022-11-18T13:15:22.175Z,9.58
2022-11-18T13:16:22.108Z,9.63
2022-11-18T13:17:22.014Z,9.58
2022-11-18T13:18:21.934Z,9.53
2022-11-18T13:19:21.857Z,9.65
2022-11-18T13:20:21.765Z,9.64
2022-11-18T13:21:21.691Z,9.50